sensor_id;sensor_type;location;lat;lon;timestamp;pressure;altitude;pressure_sealevel;temperature;humidity
68476;BME280;55464;48.266;14.188;2023-04-25T00:01:29;97139.53;;;9.57;64.37
68476;BME280;55464;48.266;14.188;2023-04-25T00:03:55;97143.44;;;9.56;64.22
68476;BME280;55464;48.266;14.188;2023-04-25T00:06:20;97149.13;;;9.63;64.34
68476;BME280;55464;48.266;14.188;2023-04-25T00:08:47;97147.84;;;9.60;64.22
68476;BME280;55464;48.266;14.188;2023-04-25T00:11:13;97151.88;;;9.63;64.31
68476;BME280;55464;48.266;14.188;2023-04-25T00:13:38;97146.28;;;9.59;64.33
68476;BME280;55464;48.266;14.188;2023-04-25T00:16:06;97145.13;;;9.60;64.24
68476;BME280;55464;48.266;14.188;2023-04-25T00:18:33;97140.25;;;9.54;64.44
68476;BME280;55464;48.266;14.188;2023-04-25T00:20:58;97151.09;;;9.62;64.26
68476;BME280;55464;48.266;14.188;2023-04-25T00:23:24;97150.09;;;9.55;64.98
68476;BME280;55464;48.266;14.188;2023-04-25T00:25:50;97157.09;;;9.52;64.95
68476;BME280;55464;48.266;14.188;2023-04-25T00:28:16;97157.09;;;9.52;64.92
68476;BME280;55464;48.266;14.188;2023-04-25T00:30:42;97148.28;;;9.46;65.14
68476;BME280;55464;48.266;14.188;2023-04-25T00:33:08;97147.50;;;9.46;64.91
68476;BME280;55464;48.266;14.188;2023-04-25T00:35:34;97150.94;;;9.43;64.96
68476;BME280;55464;48.266;14.188;2023-04-25T00:38:00;97146.72;;;9.45;64.52
68476;BME280;55464;48.266;14.188;2023-04-25T00:40:26;97141.13;;;9.42;64.69
68476;BME280;55464;48.266;14.188;2023-04-25T00:42:54;97127.88;;;9.32;64.91
68476;BME280;55464;48.266;14.188;2023-04-25T00:45:20;97139.75;;;9.36;64.85
68476;BME280;55464;48.266;14.188;2023-04-25T00:47:46;97134.25;;;9.36;64.87
68476;BME280;55464;48.266;14.188;2023-04-25T00:50:13;97133.81;;;9.34;64.71
68476;BME280;55464;48.266;14.188;2023-04-25T00:52:40;97132.69;;;9.35;65.06
68476;BME280;55464;48.266;14.188;2023-04-25T00:55:07;97136.91;;;9.32;65.26
68476;BME280;55464;48.266;14.188;2023-04-25T00:57:32;97140.34;;;9.29;65.31
68476;BME280;55464;48.266;14.188;2023-04-25T00:59:58;97130.78;;;9.23;65.88
68476;BME280;55464;48.266;14.188;2023-04-25T01:02:25;97129.06;;;9.18;66.01
68476;BME280;55464;48.266;14.188;2023-04-25T01:04:50;97128.63;;;9.16;66.15
68476;BME280;55464;48.266;14.188;2023-04-25T01:07:16;97125.00;;;9.12;66.41
68476;BME280;55464;48.266;14.188;2023-04-25T01:09:42;97127.50;;;9.17;66.05
68476;BME280;55464;48.266;14.188;2023-04-25T01:12:08;97119.25;;;9.17;66.11
68476;BME280;55464;48.266;14.188;2023-04-25T01:14:33;97110.66;;;9.19;65.96
68476;BME280;55464;48.266;14.188;2023-04-25T01:16:59;97119.94;;;9.14;66.38
68476;BME280;55464;48.266;14.188;2023-04-25T01:19:24;97120.28;;;9.13;66.24
68476;BME280;55464;48.266;14.188;2023-04-25T01:21:50;97115.50;;;9.09;66.52
68476;BME280;55464;48.266;14.188;2023-04-25T01:24:16;97107.72;;;9.12;66.20
68476;BME280;55464;48.266;14.188;2023-04-25T01:26:42;97112.38;;;9.11;66.43
68476;BME280;55464;48.266;14.188;2023-04-25T01:29:18;97116.22;;;9.06;66.63
68476;BME280;55464;48.266;14.188;2023-04-25T01:31:44;97120.44;;;9.04;67.15
68476;BME280;55464;48.266;14.188;2023-04-25T01:34:11;97107.50;;;9.04;66.89
68476;BME280;55464;48.266;14.188;2023-04-25T01:36:36;97103.41;;;8.98;66.71
68476;BME280;55464;48.266;14.188;2023-04-25T01:39:02;97106.69;;;9.04;66.73
68476;BME280;55464;48.266;14.188;2023-04-25T01:41:28;97105.38;;;8.98;66.29
68476;BME280;55464;48.266;14.188;2023-04-25T01:43:54;97105.91;;;9.03;66.50
68476;BME280;55464;48.266;14.188;2023-04-25T01:46:19;97107.88;;;9.03;66.20
68476;BME280;55464;48.266;14.188;2023-04-25T01:48:45;97079.63;;;8.90;65.99
68476;BME280;55464;48.266;14.188;2023-04-25T01:51:10;97106.81;;;9.07;65.75
68476;BME280;55464;48.266;14.188;2023-04-25T01:53:37;97100.06;;;9.05;66.02
68476;BME280;55464;48.266;14.188;2023-04-25T01:56:03;97100.06;;;9.05;66.13
68476;BME280;55464;48.266;14.188;2023-04-25T01:58:28;97094.66;;;9.08;65.99
68476;BME280;55464;48.266;14.188;2023-04-25T02:00:54;97091.91;;;9.08;65.94
68476;BME280;55464;48.266;14.188;2023-04-25T02:03:19;97095.34;;;9.05;66.58
68476;BME280;55464;48.266;14.188;2023-04-25T02:05:45;97102.38;;;9.03;66.96
68476;BME280;55464;48.266;14.188;2023-04-25T02:08:10;97085.88;;;9.03;66.75
68476;BME280;55464;48.266;14.188;2023-04-25T02:10:36;97091.00;;;9.04;66.99
68476;BME280;55464;48.266;14.188;2023-04-25T02:13:02;97091.25;;;8.99;67.71
68476;BME280;55464;48.266;14.188;2023-04-25T02:15:28;97077.06;;;8.97;67.84
68476;BME280;55464;48.266;14.188;2023-04-25T02:17:53;97081.06;;;9.00;67.36
68476;BME280;55464;48.266;14.188;2023-04-25T02:20:21;97072.38;;;8.98;67.73
68476;BME280;55464;48.266;14.188;2023-04-25T02:22:47;97075.13;;;8.98;67.52
68476;BME280;55464;48.266;14.188;2023-04-25T02:25:12;97079.56;;;9.02;67.12
68476;BME280;55464;48.266;14.188;2023-04-25T02:27:38;97080.25;;;8.99;67.22
68476;BME280;55464;48.266;14.188;2023-04-25T02:30:05;97094.00;;;8.99;66.86
68476;BME280;55464;48.266;14.188;2023-04-25T02:32:32;97094.47;;;9.01;66.68
68476;BME280;55464;48.266;14.188;2023-04-25T02:34:59;97088.06;;;8.97;66.10
68476;BME280;55464;48.266;14.188;2023-04-25T02:37:30;97085.06;;;9.02;65.70
68476;BME280;55464;48.266;14.188;2023-04-25T02:39:55;97088.97;;;9.01;65.63
68476;BME280;55464;48.266;14.188;2023-04-25T02:42:20;97087.81;;;9.02;65.38
68476;BME280;55464;48.266;14.188;2023-04-25T02:44:46;97078.22;;;8.96;65.24
68476;BME280;55464;48.266;14.188;2023-04-25T02:47:11;97077.31;;;8.92;65.61
68476;BME280;55464;48.266;14.188;2023-04-25T02:49:37;97061.91;;;8.87;65.38
68476;BME280;55464;48.266;14.188;2023-04-25T02:52:02;97070.31;;;8.79;66.40
68476;BME280;55464;48.266;14.188;2023-04-25T02:54:27;97064.13;;;8.69;66.70
68476;BME280;55464;48.266;14.188;2023-04-25T02:56:53;97059.81;;;8.68;66.72
68476;BME280;55464;48.266;14.188;2023-04-25T02:59:18;97070.34;;;8.66;66.59
68476;BME280;55464;48.266;14.188;2023-04-25T03:01:44;97067.41;;;8.59;67.03
68476;BME280;55464;48.266;14.188;2023-04-25T03:04:10;97056.56;;;8.50;67.39
68476;BME280;55464;48.266;14.188;2023-04-25T03:06:35;97058.72;;;8.45;67.77
68476;BME280;55464;48.266;14.188;2023-04-25T03:09:01;97058.28;;;8.43;67.85
68476;BME280;55464;48.266;14.188;2023-04-25T03:11:26;97069.72;;;8.45;67.51
68476;BME280;55464;48.266;14.188;2023-04-25T03:13:52;97054.41;;;8.44;67.32
68476;BME280;55464;48.266;14.188;2023-04-25T03:16:17;97062.84;;;8.39;67.94
68476;BME280;55464;48.266;14.188;2023-04-25T03:18:42;97063.53;;;8.36;68.16
68476;BME280;55464;48.266;14.188;2023-04-25T03:21:08;97056.09;;;8.36;67.71
68476;BME280;55464;48.266;14.188;2023-04-25T03:23:34;97040.69;;;8.31;67.86
68476;BME280;55464;48.266;14.188;2023-04-25T03:25:59;97038.03;;;8.35;67.39
68476;BME280;55464;48.266;14.188;2023-04-25T03:28:25;97035.28;;;8.35;67.35
68476;BME280;55464;48.266;14.188;2023-04-25T03:30:50;97031.84;;;8.38;66.85
68476;BME280;55464;48.266;14.188;2023-04-25T03:33:15;97035.75;;;8.37;67.16
68476;BME280;55464;48.266;14.188;2023-04-25T03:35:41;97043.63;;;8.39;66.57
68476;BME280;55464;48.266;14.188;2023-04-25T03:38:07;97044.06;;;8.41;66.75
68476;BME280;55464;48.266;14.188;2023-04-25T03:40:33;97033.88;;;8.41;66.43
68476;BME280;55464;48.266;14.188;2023-04-25T03:42:59;97032.44;;;8.44;66.57
68476;BME280;55464;48.266;14.188;2023-04-25T03:45:24;97037.59;;;8.45;66.44
68476;BME280;55464;48.266;14.188;2023-04-25T03:47:49;97032.31;;;8.40;66.54
68476;BME280;55464;48.266;14.188;2023-04-25T03:50:15;97025.19;;;8.39;66.65
68476;BME280;55464;48.266;14.188;2023-04-25T03:52:40;97039.50;;;8.45;66.57
68476;BME280;55464;48.266;14.188;2023-04-25T03:55:06;97040.69;;;8.44;66.44
68476;BME280;55464;48.266;14.188;2023-04-25T03:57:32;97045.59;;;8.38;67.12
68476;BME280;55464;48.266;14.188;2023-04-25T03:59:57;97046.41;;;8.26;67.29
68476;BME280;55464;48.266;14.188;2023-04-25T04:02:23;97050.97;;;8.35;67.03
68476;BME280;55464;48.266;14.188;2023-04-25T04:04:48;97042.25;;;8.32;66.89
68476;BME280;55464;48.266;14.188;2023-04-25T04:07:14;97048.72;;;8.24;67.08
68476;BME280;55464;48.266;14.188;2023-04-25T04:09:39;97041.28;;;8.25;67.32
68476;BME280;55464;48.266;14.188;2023-04-25T04:12:05;97040.47;;;8.24;67.81
68476;BME280;55464;48.266;14.188;2023-04-25T04:14:30;97037.97;;;8.19;67.72
68476;BME280;55464;48.266;14.188;2023-04-25T04:16:55;97030.28;;;8.25;68.07
68476;BME280;55464;48.266;14.188;2023-04-25T04:19:21;97038.88;;;8.23;68.22
68476;BME280;55464;48.266;14.188;2023-04-25T04:21:46;97046.66;;;8.21;68.81
68476;BME280;55464;48.266;14.188;2023-04-25T04:24:12;97048.38;;;8.26;68.65
68476;BME280;55464;48.266;14.188;2023-04-25T04:26:37;97053.03;;;8.25;69.14
68476;BME280;55464;48.266;14.188;2023-04-25T04:29:03;97047.00;;;8.20;69.71
68476;BME280;55464;48.266;14.188;2023-04-25T04:31:29;97040.03;;;8.22;69.83
68476;BME280;55464;48.266;14.188;2023-04-25T04:33:55;97044.91;;;8.29;69.68
68476;BME280;55464;48.266;14.188;2023-04-25T04:36:20;97048.91;;;8.31;70.04
68476;BME280;55464;48.266;14.188;2023-04-25T04:38:47;97050.50;;;8.32;70.59
68476;BME280;55464;48.266;14.188;2023-04-25T04:41:12;97052.13;;;8.33;70.64
68476;BME280;55464;48.266;14.188;2023-04-25T04:43:38;97051.44;;;8.37;70.74
68476;BME280;55464;48.266;14.188;2023-04-25T04:46:04;97054.28;;;8.40;70.53
68476;BME280;55464;48.266;14.188;2023-04-25T04:48:33;97046.63;;;8.46;70.21
68476;BME280;55464;48.266;14.188;2023-04-25T04:50:59;97036.31;;;8.43;70.24
68476;BME280;55464;48.266;14.188;2023-04-25T04:53:25;97042.00;;;8.50;70.42
68476;BME280;55464;48.266;14.188;2023-04-25T04:55:51;97034.59;;;8.50;70.35
68476;BME280;55464;48.266;14.188;2023-04-25T04:58:16;97030.13;;;8.46;70.76
68476;BME280;55464;48.266;14.188;2023-04-25T05:00:41;97037.69;;;8.49;70.79
68476;BME280;55464;48.266;14.188;2023-04-25T05:03:07;97049.91;;;8.51;70.76
68476;BME280;55464;48.266;14.188;2023-04-25T05:05:33;97048.31;;;8.50;70.84
68476;BME280;55464;48.266;14.188;2023-04-25T05:07:58;97048.31;;;8.50;70.90
68476;BME280;55464;48.266;14.188;2023-04-25T05:10:23;97045.34;;;8.56;70.16
68476;BME280;55464;48.266;14.188;2023-04-25T05:12:49;97050.00;;;8.55;69.65
68476;BME280;55464;48.266;14.188;2023-04-25T05:15:14;97048.53;;;8.58;69.66
68476;BME280;55464;48.266;14.188;2023-04-25T05:17:40;97056.75;;;8.58;70.76
68476;BME280;55464;48.266;14.188;2023-04-25T05:20:06;97056.16;;;8.64;71.05
68476;BME280;55464;48.266;14.188;2023-04-25T05:22:34;97053.44;;;8.64;71.12
68476;BME280;55464;48.266;14.188;2023-04-25T05:24:59;97045.19;;;8.64;71.65
68476;BME280;55464;48.266;14.188;2023-04-25T05:27:25;97041.81;;;8.71;71.17
68476;BME280;55464;48.266;14.188;2023-04-25T05:29:50;97036.22;;;8.67;71.27
68476;BME280;55464;48.266;14.188;2023-04-25T05:32:16;97035.72;;;8.78;71.52
68476;BME280;55464;48.266;14.188;2023-04-25T05:34:41;97029.44;;;8.77;69.23
68476;BME280;55464;48.266;14.188;2023-04-25T05:37:07;97030.22;;;8.78;69.48
68476;BME280;55464;48.266;14.188;2023-04-25T05:39:32;97039.00;;;8.83;69.76
68476;BME280;55464;48.266;14.188;2023-04-25T05:41:58;97026.53;;;8.86;69.58
68476;BME280;55464;48.266;14.188;2023-04-25T05:44:23;97028.94;;;8.87;68.77
68476;BME280;55464;48.266;14.188;2023-04-25T05:46:49;97031.59;;;8.84;68.95
68476;BME280;55464;48.266;14.188;2023-04-25T05:49:14;97039.81;;;8.84;68.97
68476;BME280;55464;48.266;14.188;2023-04-25T05:51:40;97035.56;;;8.86;68.99
68476;BME280;55464;48.266;14.188;2023-04-25T05:54:05;97043.00;;;8.86;69.44
68476;BME280;55464;48.266;14.188;2023-04-25T05:56:31;97052.03;;;8.86;69.66
68476;BME280;55464;48.266;14.188;2023-04-25T05:58:56;97054.78;;;8.86;69.21
68476;BME280;55464;48.266;14.188;2023-04-25T06:01:22;97050.09;;;8.87;69.53
68476;BME280;55464;48.266;14.188;2023-04-25T06:03:48;97050.56;;;8.89;68.98
68476;BME280;55464;48.266;14.188;2023-04-25T06:06:13;97043.47;;;8.88;69.40
68476;BME280;55464;48.266;14.188;2023-04-25T06:08:39;97039.56;;;8.89;69.16
68476;BME280;55464;48.266;14.188;2023-04-25T06:11:04;97048.88;;;9.00;68.80
68476;BME280;55464;48.266;14.188;2023-04-25T06:13:30;97041.78;;;8.99;68.65
68476;BME280;55464;48.266;14.188;2023-04-25T06:15:55;97042.69;;;9.03;68.96
68476;BME280;55464;48.266;14.188;2023-04-25T06:18:20;97041.81;;;9.15;68.91
68476;BME280;55464;48.266;14.188;2023-04-25T06:20:46;97025.94;;;9.08;68.98
68476;BME280;55464;48.266;14.188;2023-04-25T06:23:11;97042.63;;;9.16;68.63
68476;BME280;55464;48.266;14.188;2023-04-25T06:25:37;97039.34;;;9.26;68.66
68476;BME280;55464;48.266;14.188;2023-04-25T06:28:02;97019.19;;;9.22;68.50
68476;BME280;55464;48.266;14.188;2023-04-25T06:30:28;97023.72;;;9.30;68.87
68476;BME280;55464;48.266;14.188;2023-04-25T06:32:53;97024.16;;;9.32;69.58
68476;BME280;55464;48.266;14.188;2023-04-25T06:35:19;97037.38;;;9.42;70.66
68476;BME280;55464;48.266;14.188;2023-04-25T06:37:44;97033.59;;;9.47;69.87
68476;BME280;55464;48.266;14.188;2023-04-25T06:40:10;97033.03;;;9.57;69.12
68476;BME280;55464;48.266;14.188;2023-04-25T06:42:36;97025.59;;;9.58;68.15
68476;BME280;55464;48.266;14.188;2023-04-25T06:45:02;97026.28;;;9.55;68.83
68476;BME280;55464;48.266;14.188;2023-04-25T06:47:27;97014.56;;;9.58;70.35
68476;BME280;55464;48.266;14.188;2023-04-25T06:49:52;97015.38;;;9.58;70.41
68476;BME280;55464;48.266;14.188;2023-04-25T06:52:18;97008.81;;;9.63;70.21
68476;BME280;55464;48.266;14.188;2023-04-25T06:54:44;97010.47;;;9.68;70.54
68476;BME280;55464;48.266;14.188;2023-04-25T06:57:10;97011.16;;;9.80;69.36
68476;BME280;55464;48.266;14.188;2023-04-25T06:59:35;97010.16;;;9.89;68.05
68476;BME280;55464;48.266;14.188;2023-04-25T07:02:00;97007.72;;;9.83;68.82
68476;BME280;55464;48.266;14.188;2023-04-25T07:04:26;97006.91;;;9.83;68.93
68476;BME280;55464;48.266;14.188;2023-04-25T07:06:51;97013.97;;;10.00;67.77
68476;BME280;55464;48.266;14.188;2023-04-25T07:09:17;97008.38;;;9.96;68.34
68476;BME280;55464;48.266;14.188;2023-04-25T07:11:42;97008.09;;;10.01;67.99
68476;BME280;55464;48.266;14.188;2023-04-25T07:14:07;97012.78;;;10.01;68.58
68476;BME280;55464;48.266;14.188;2023-04-25T07:16:33;97013.19;;;9.99;69.05
68476;BME280;55464;48.266;14.188;2023-04-25T07:18:58;97006.50;;;10.00;69.12
68476;BME280;55464;48.266;14.188;2023-04-25T07:21:24;97006.84;;;9.99;69.00
68476;BME280;55464;48.266;14.188;2023-04-25T07:23:50;96997.81;;;9.98;68.98
68476;BME280;55464;48.266;14.188;2023-04-25T07:26:16;97004.16;;;10.02;69.35
68476;BME280;55464;48.266;14.188;2023-04-25T07:28:42;96996.38;;;10.05;69.51
68476;BME280;55464;48.266;14.188;2023-04-25T07:31:08;96996.44;;;10.08;69.60
68476;BME280;55464;48.266;14.188;2023-04-25T07:33:34;97002.25;;;10.22;67.31
68476;BME280;55464;48.266;14.188;2023-04-25T07:35:59;97005.50;;;10.28;67.17
68476;BME280;55464;48.266;14.188;2023-04-25T07:38:25;96997.53;;;10.23;66.95
68476;BME280;55464;48.266;14.188;2023-04-25T07:40:50;96992.53;;;10.29;65.95
68476;BME280;55464;48.266;14.188;2023-04-25T07:43:16;96999.56;;;10.26;66.75
68476;BME280;55464;48.266;14.188;2023-04-25T07:45:45;96996.63;;;10.35;65.92
68476;BME280;55464;48.266;14.188;2023-04-25T07:48:15;96996.34;;;10.40;65.35
68476;BME280;55464;48.266;14.188;2023-04-25T07:50:41;96994.31;;;10.37;65.19
68476;BME280;55464;48.266;14.188;2023-04-25T07:53:06;97005.25;;;10.33;65.88
68476;BME280;55464;48.266;14.188;2023-04-25T07:55:32;96994.44;;;10.25;66.60
68476;BME280;55464;48.266;14.188;2023-04-25T07:57:57;97007.44;;;10.44;65.06
68476;BME280;55464;48.266;14.188;2023-04-25T08:00:22;96989.28;;;10.23;66.14
68476;BME280;55464;48.266;14.188;2023-04-25T08:02:48;96993.53;;;10.36;66.41
68476;BME280;55464;48.266;14.188;2023-04-25T08:05:13;96999.19;;;10.44;66.51
68476;BME280;55464;48.266;14.188;2023-04-25T08:07:40;96990.59;;;10.29;66.31
68476;BME280;55464;48.266;14.188;2023-04-25T08:10:07;96998.69;;;10.38;66.81
68476;BME280;55464;48.266;14.188;2023-04-25T08:12:33;96991.63;;;10.40;66.37
68476;BME280;55464;48.266;14.188;2023-04-25T08:14:58;96974.09;;;10.49;64.01
68476;BME280;55464;48.266;14.188;2023-04-25T08:17:24;96981.31;;;10.57;63.72
68476;BME280;55464;48.266;14.188;2023-04-25T08:19:49;96982.50;;;10.56;63.87
68476;BME280;55464;48.266;14.188;2023-04-25T08:22:15;96987.41;;;10.66;63.57
68476;BME280;55464;48.266;14.188;2023-04-25T08:24:41;96975.50;;;10.62;64.05
68476;BME280;55464;48.266;14.188;2023-04-25T08:27:07;96975.50;;;10.62;65.04
68476;BME280;55464;48.266;14.188;2023-04-25T08:29:33;96983.00;;;10.62;65.88
68476;BME280;55464;48.266;14.188;2023-04-25T08:31:59;96983.31;;;10.79;64.15
68476;BME280;55464;48.266;14.188;2023-04-25T08:34:24;96979.91;;;10.86;64.77
68476;BME280;55464;48.266;14.188;2023-04-25T08:36:50;96975.25;;;10.90;63.44
68476;BME280;55464;48.266;14.188;2023-04-25T08:39:16;96977.63;;;10.92;63.66
68476;BME280;55464;48.266;14.188;2023-04-25T08:41:41;96987.22;;;10.98;63.73
68476;BME280;55464;48.266;14.188;2023-04-25T08:44:10;96977.63;;;10.92;64.35
68476;BME280;55464;48.266;14.188;2023-04-25T08:46:37;96987.22;;;10.98;62.71
68476;BME280;55464;48.266;14.188;2023-04-25T08:49:03;97003.38;;;11.00;62.98
68476;BME280;55464;48.266;14.188;2023-04-25T08:51:31;96980.50;;;10.99;62.24
68476;BME280;55464;48.266;14.188;2023-04-25T08:54:04;96993.56;;;11.02;62.01
68476;BME280;55464;48.266;14.188;2023-04-25T08:56:33;96998.13;;;10.91;63.38
68476;BME280;55464;48.266;14.188;2023-04-25T08:59:01;96994.53;;;10.90;63.12
68476;BME280;55464;48.266;14.188;2023-04-25T09:01:27;96992.91;;;10.86;64.46
68476;BME280;55464;48.266;14.188;2023-04-25T09:03:52;96986.19;;;10.87;64.87
68476;BME280;55464;48.266;14.188;2023-04-25T09:06:19;96990.03;;;11.02;63.62
68476;BME280;55464;48.266;14.188;2023-04-25T09:08:44;96981.69;;;11.21;63.36
68476;BME280;55464;48.266;14.188;2023-04-25T09:11:10;96982.00;;;11.16;63.42
68476;BME280;55464;48.266;14.188;2023-04-25T09:13:35;96987.56;;;11.20;63.18
68476;BME280;55464;48.266;14.188;2023-04-25T09:16:01;96972.50;;;11.13;63.94
68476;BME280;55464;48.266;14.188;2023-04-25T09:18:28;96977.53;;;11.31;63.11
68476;BME280;55464;48.266;14.188;2023-04-25T09:21:04;96977.84;;;11.26;63.85
68476;BME280;55464;48.266;14.188;2023-04-25T09:23:39;96991.28;;;11.27;63.17
68476;BME280;55464;48.266;14.188;2023-04-25T09:26:07;96991.50;;;11.42;61.95
68476;BME280;55464;48.266;14.188;2023-04-25T09:28:32;96983.91;;;11.35;62.62
68476;BME280;55464;48.266;14.188;2023-04-25T09:31:00;96989.41;;;11.35;65.30
68476;BME280;55464;48.266;14.188;2023-04-25T09:33:32;96983.94;;;11.39;65.16
68476;BME280;55464;48.266;14.188;2023-04-25T09:36:05;96974.88;;;11.38;63.07
68476;BME280;55464;48.266;14.188;2023-04-25T09:38:39;97001.16;;;11.55;60.99
68476;BME280;55464;48.266;14.188;2023-04-25T09:41:06;97000.41;;;11.58;61.54
68476;BME280;55464;48.266;14.188;2023-04-25T09:43:31;96984.53;;;11.51;59.79
68476;BME280;55464;48.266;14.188;2023-04-25T09:45:56;96990.56;;;11.57;60.53
68476;BME280;55464;48.266;14.188;2023-04-25T09:48:27;96989.28;;;11.51;61.62
68476;BME280;55464;48.266;14.188;2023-04-25T09:51:14;96990.81;;;11.75;58.39
68476;BME280;55464;48.266;14.188;2023-04-25T09:53:42;96998.44;;;11.82;58.22
68476;BME280;55464;48.266;14.188;2023-04-25T09:56:09;96993.59;;;11.75;57.13
68476;BME280;55464;48.266;14.188;2023-04-25T09:58:37;96992.53;;;11.83;57.70
68476;BME280;55464;48.266;14.188;2023-04-25T10:01:04;96987.75;;;11.80;58.04
68476;BME280;55464;48.266;14.188;2023-04-25T10:03:31;96998.97;;;11.91;55.58
68476;BME280;55464;48.266;14.188;2023-04-25T10:06:01;96986.09;;;12.02;57.00
68476;BME280;55464;48.266;14.188;2023-04-25T10:08:33;96969.84;;;11.97;58.93
68476;BME280;55464;48.266;14.188;2023-04-25T10:11:01;96967.13;;;12.01;57.22
68476;BME280;55464;48.266;14.188;2023-04-25T10:13:28;96983.34;;;12.02;60.08
68476;BME280;55464;48.266;14.188;2023-04-25T10:15:55;96993.28;;;12.07;60.71
68476;BME280;55464;48.266;14.188;2023-04-25T10:18:22;96982.59;;;12.05;58.33
68476;BME280;55464;48.266;14.188;2023-04-25T10:20:48;96995.84;;;11.93;59.87
68476;BME280;55464;48.266;14.188;2023-04-25T10:23:14;97001.66;;;11.87;59.97
68476;BME280;55464;48.266;14.188;2023-04-25T10:25:41;97001.88;;;11.75;58.52
68476;BME280;55464;48.266;14.188;2023-04-25T10:28:07;96981.66;;;11.44;59.28
68476;BME280;55464;48.266;14.188;2023-04-25T10:30:32;97000.78;;;11.57;59.39
68476;BME280;55464;48.266;14.188;2023-04-25T10:32:58;97000.72;;;11.53;60.24
68476;BME280;55464;48.266;14.188;2023-04-25T10:35:26;97010.91;;;11.49;61.13
68476;BME280;55464;48.266;14.188;2023-04-25T10:38:06;96998.16;;;11.41;60.40
68476;BME280;55464;48.266;14.188;2023-04-25T10:40:33;97011.66;;;11.46;61.01
68476;BME280;55464;48.266;14.188;2023-04-25T10:45:55;97013.31;;;11.50;59.62
68476;BME280;55464;48.266;14.188;2023-04-25T10:48:28;97020.47;;;11.55;60.07
68476;BME280;55464;48.266;14.188;2023-04-25T10:51:22;97018.59;;;11.59;57.57
68476;BME280;55464;48.266;14.188;2023-04-25T10:56:25;97034.66;;;11.53;58.24
68476;BME280;55464;48.266;14.188;2023-04-25T10:58:51;97060.16;;;11.47;58.86
68476;BME280;55464;48.266;14.188;2023-04-25T11:01:21;97057.53;;;11.31;58.79
68476;BME280;55464;48.266;14.188;2023-04-25T11:03:57;97054.31;;;11.06;60.12
68476;BME280;55464;48.266;14.188;2023-04-25T11:06:29;97045.31;;;11.09;59.30
68476;BME280;55464;48.266;14.188;2023-04-25T11:09:00;97059.69;;;10.98;61.34
68476;BME280;55464;48.266;14.188;2023-04-25T11:11:28;97051.06;;;10.81;62.35
68476;BME280;55464;48.266;14.188;2023-04-25T11:13:54;97050.72;;;10.82;63.73
68476;BME280;55464;48.266;14.188;2023-04-25T11:16:19;97053.34;;;10.75;65.85
68476;BME280;55464;48.266;14.188;2023-04-25T11:18:44;97044.72;;;10.76;65.79
68476;BME280;55464;48.266;14.188;2023-04-25T11:21:11;97046.50;;;10.69;67.32
68476;BME280;55464;48.266;14.188;2023-04-25T11:23:37;97044.47;;;10.66;68.62
68476;BME280;55464;48.266;14.188;2023-04-25T11:26:03;97041.78;;;10.69;68.58
68476;BME280;55464;48.266;14.188;2023-04-25T11:28:29;97039.50;;;10.71;66.49
68476;BME280;55464;48.266;14.188;2023-04-25T11:30:54;97035.19;;;10.74;67.78
68476;BME280;55464;48.266;14.188;2023-04-25T11:33:24;97038.97;;;10.85;67.14
68476;BME280;55464;48.266;14.188;2023-04-25T11:35:50;97039.16;;;10.96;67.35
68476;BME280;55464;48.266;14.188;2023-04-25T11:38:16;97041.34;;;11.06;63.88
68476;BME280;55464;48.266;14.188;2023-04-25T11:40:41;97044.53;;;11.08;61.72
68476;BME280;55464;48.266;14.188;2023-04-25T11:43:09;97041.16;;;11.19;61.22
68476;BME280;55464;48.266;14.188;2023-04-25T11:45:36;97039.91;;;11.39;58.75
68476;BME280;55464;48.266;14.188;2023-04-25T11:48:02;97042.97;;;11.34;60.55
68476;BME280;55464;48.266;14.188;2023-04-25T11:50:28;97033.38;;;11.47;59.62
68476;BME280;55464;48.266;14.188;2023-04-25T11:52:56;97034.91;;;11.45;60.23
68476;BME280;55464;48.266;14.188;2023-04-25T11:55:22;97036.19;;;11.51;60.57
68476;BME280;55464;48.266;14.188;2023-04-25T11:57:48;97038.00;;;11.66;58.76
68476;BME280;55464;48.266;14.188;2023-04-25T12:00:19;97036.34;;;11.62;60.19
68476;BME280;55464;48.266;14.188;2023-04-25T12:02:50;97034.06;;;11.67;60.40
68476;BME280;55464;48.266;14.188;2023-04-25T12:05:16;97033.03;;;11.76;62.34
68476;BME280;55464;48.266;14.188;2023-04-25T12:07:42;97039.06;;;11.85;60.89
68476;BME280;55464;48.266;14.188;2023-04-25T12:10:08;97035.75;;;11.99;60.39
68476;BME280;55464;48.266;14.188;2023-04-25T12:12:35;97026.63;;;12.21;57.57
68476;BME280;55464;48.266;14.188;2023-04-25T12:15:23;97019.06;;;12.18;59.34
68476;BME280;55464;48.266;14.188;2023-04-25T12:17:50;97019.38;;;12.40;55.93
68476;BME280;55464;48.266;14.188;2023-04-25T12:20:21;97021.19;;;12.28;58.26
68476;BME280;55464;48.266;14.188;2023-04-25T12:22:49;97011.41;;;12.35;59.57
68476;BME280;55464;48.266;14.188;2023-04-25T12:25:44;97016.66;;;12.43;59.68
68476;BME280;55464;48.266;14.188;2023-04-25T12:28:19;97003.63;;;12.44;58.17
68476;BME280;55464;48.266;14.188;2023-04-25T12:33:28;97019.91;;;12.53;57.74
68476;BME280;55464;48.266;14.188;2023-04-25T12:35:54;97028.22;;;12.53;58.67
68476;BME280;55464;48.266;14.188;2023-04-25T12:40:48;97051.75;;;12.13;62.93
68476;BME280;55464;48.266;14.188;2023-04-25T12:43:13;97065.09;;;11.84;63.63
68476;BME280;55464;48.266;14.188;2023-04-25T12:45:39;97063.03;;;11.54;64.79
68476;BME280;55464;48.266;14.188;2023-04-25T12:48:05;97060.47;;;11.42;65.95
68476;BME280;55464;48.266;14.188;2023-04-25T12:50:30;97053.09;;;11.26;65.53
68476;BME280;55464;48.266;14.188;2023-04-25T12:52:56;97044.66;;;11.15;67.25
68476;BME280;55464;48.266;14.188;2023-04-25T12:55:21;97046.47;;;11.08;67.62
68476;BME280;55464;48.266;14.188;2023-04-25T12:57:47;97037.03;;;11.09;68.13
68476;BME280;55464;48.266;14.188;2023-04-25T13:00:12;97034.88;;;11.22;70.04
68476;BME280;55464;48.266;14.188;2023-04-25T13:02:40;97023.38;;;11.39;70.34